Time;durP1;ratioP1;P1;durP2;ratioP2;P2;SDS_P1;SDS_P2;PMS_P1;PMS_P2;Temp;Humidity;BMP_temperature;BMP_pressure;BME280_temperature;BME280_humidity;BME280_pressure;Samples;Min_cycle;Max_cycle;Signal;HPM_P1;HPM_P2
2022/10/16 00:01:17;;;;;;;;;;;12.60;99.90;;;;;;5069412;28;19928;-69
2022/10/16 00:03:43;;;;;;;;;;;12.60;99.90;;;;;;5071230;28;20268;-69
2022/10/16 00:06:09;;;;;;;;;;;12.60;99.90;;;;;;5070598;28;20004;-69
2022/10/16 00:08:35;;;;;;;;;;;12.60;99.90;;;;;;5071045;28;19928;-69
2022/10/16 00:11:02;;;;;;;;;;;12.60;99.90;;;;;;5094067;28;19978;-69
2022/10/16 00:13:28;;;;;;;;;;;12.60;99.90;;;;;;5069773;28;19931;-69
2022/10/16 00:15:57;;;;;;;;;;;12.60;99.90;;;;;;5071367;28;19924;-70
2022/10/16 00:18:23;;;;;;;;;;;12.60;99.90;;;;;;5070762;28;19935;-70
2022/10/16 00:20:49;;;;;;;;;;;12.60;99.90;;;;;;5071395;28;19928;-68
2022/10/16 00:23:15;;;;;;;;;;;12.60;99.90;;;;;;5071918;28;20338;-69
2022/10/16 00:25:40;;;;;;;;;;;12.60;99.90;;;;;;5068940;28;19985;-68
2022/10/16 00:28:06;;;;;;;;;;;12.60;99.90;;;;;;5071073;28;20028;-69
2022/10/16 00:30:31;;;;;;;;;;;12.60;99.90;;;;;;5069293;28;19990;-68
2022/10/16 00:32:57;;;;;;;;;;;12.60;99.90;;;;;;5070523;28;20421;-69
2022/10/16 00:35:23;;;;;;;;;;;12.60;99.90;;;;;;5071505;28;20301;-68
2022/10/16 00:37:48;;;;;;;;;;;12.60;99.90;;;;;;5070927;28;19935;-68
2022/10/16 00:40:14;;;;;;;;;;;12.50;99.90;;;;;;5071044;28;19925;-69
2022/10/16 00:42:40;;;;;;;;;;;12.50;99.90;;;;;;5070081;28;19924;-70
2022/10/16 00:45:05;;;;;;;;;;;12.60;99.90;;;;;;5071117;28;20014;-69
2022/10/16 00:47:36;;;;;;;;;;;12.50;99.90;;;;;;5083217;28;19955;-69
2022/10/16 00:50:11;;;;;;;;;;;12.50;99.90;;;;;;5069937;28;19929;-68
2022/10/16 00:52:39;;;;;;;;;;;12.50;99.90;;;;;;5100808;28;20003;-69
2022/10/16 00:55:05;;;;;;;;;;;12.60;99.90;;;;;;5070258;28;20350;-69
2022/10/16 00:57:31;;;;;;;;;;;12.60;99.90;;;;;;5069785;28;19932;-69
2022/10/16 00:59:57;;;;;;;;;;;12.50;99.90;;;;;;5072534;28;19977;-67
2022/10/16 01:02:23;;;;;;;;;;;12.60;99.90;;;;;;5102825;28;19929;-70
2022/10/16 01:04:52;;;;;;;;;;;12.70;99.90;;;;;;5069387;28;19935;-69
2022/10/16 01:07:25;;;;;;;;;;;12.60;99.90;;;;;;5070897;28;19932;-69
2022/10/16 01:10:07;;;;;;;;;;;12.60;99.90;;;;;;5069664;28;20417;-69
2022/10/16 01:12:39;;;;;;;;;;;12.60;99.90;;;;;;5077153;28;19932;-69
2022/10/16 01:15:20;;;;;;;;;;;12.60;99.90;;;;;;5069822;28;19932;-69
2022/10/16 01:17:52;;;;;;;;;;;12.60;99.90;;;;;;5069849;28;20025;-69
2022/10/16 01:20:30;;;;;;;;;;;12.60;99.90;;;;;;5083400;28;20027;-68
2022/10/16 01:23:14;;;;;;;;;;;12.60;99.90;;;;;;5099074;28;20045;-70
2022/10/16 01:25:59;;;;;;;;;;;12.60;99.90;;;;;;5071382;28;20375;-69
2022/10/16 01:28:28;;;;;;;;;;;12.60;99.90;;;;;;5067857;28;19966;-69
2022/10/16 01:30:56;;;;;;;;;;;12.60;99.90;;;;;;5070023;28;19924;-68
2022/10/16 01:33:24;;;;;;;;;;;12.60;99.90;;;;;;5065985;28;20296;-69
2022/10/16 01:35:55;;;;;;;;;;;12.60;99.90;;;;;;5070246;28;19925;-69
2022/10/16 01:38:27;;;;;;;;;;;12.60;99.90;;;;;;5071620;28;19967;-68
2022/10/16 01:40:57;;;;;;;;;;;12.60;99.90;;;;;;5088612;28;20495;-69
2022/10/16 01:43:25;;;;;;;;;;;12.60;99.90;;;;;;5084915;28;20015;-69
2022/10/16 01:45:51;;;;;;;;;;;12.60;99.90;;;;;;5083993;28;19995;-68
2022/10/16 01:48:17;;;;;;;;;;;12.60;99.90;;;;;;5079069;28;20011;-69
2022/10/16 01:50:44;;;;;;;;;;;12.60;99.90;;;;;;5069222;28;19935;-69
2022/10/16 01:53:12;;;;;;;;;;;12.60;99.90;;;;;;5069925;28;20299;-70
2022/10/16 01:55:43;;;;;;;;;;;12.60;99.90;;;;;;5065497;28;19978;-69
2022/10/16 01:58:10;;;;;;;;;;;12.60;99.90;;;;;;5068712;28;19931;-70
2022/10/16 02:00:37;;;;;;;;;;;12.60;99.90;;;;;;5069240;28;19925;-70
2022/10/16 02:03:03;;;;;;;;;;;12.60;99.90;;;;;;5069663;28;20015;-69
2022/10/16 02:05:32;;;;;;;;;;;12.60;99.90;;;;;;5069036;28;20387;-71
2022/10/16 02:07:57;;;;;;;;;;;12.60;99.90;;;;;;5073907;28;19929;-69
2022/10/16 02:10:24;;;;;;;;;;;12.60;99.90;;;;;;5073432;28;19977;-70
2022/10/16 02:12:59;;;;;;;;;;;12.60;99.90;;;;;;5073306;28;19993;-68
2022/10/16 02:15:24;;;;;;;;;;;12.70;99.90;;;;;;5072018;28;20360;-69
2022/10/16 02:17:50;;;;;;;;;;;12.70;99.90;;;;;;5059328;28;20011;-68
2022/10/16 02:20:16;;;;;;;;;;;12.70;99.90;;;;;;5074785;28;19966;-69
2022/10/16 02:22:47;;;;;;;;;;;12.70;99.90;;;;;;5073017;28;19928;-68
2022/10/16 02:25:29;;;;;;;;;;;12.80;99.90;;;;;;5073238;28;19924;-69
2022/10/16 02:28:01;;;;;;;;;;;12.80;99.90;;;;;;5072073;28;20096;-69
2022/10/16 02:30:27;;;;;;;;;;;12.80;99.90;;;;;;5073667;28;19924;-69
2022/10/16 02:32:53;;;;;;;;;;;12.80;99.90;;;;;;5081147;28;19924;-68
2022/10/16 02:35:20;;;;;;;;;;;12.80;99.90;;;;;;5072813;28;19924;-69
2022/10/16 02:37:46;;;;;;;;;;;12.80;99.90;;;;;;5071333;28;19932;-68
2022/10/16 02:40:13;;;;;;;;;;;12.80;99.90;;;;;;5072946;28;19994;-68
2022/10/16 02:42:39;;;;;;;;;;;12.80;99.90;;;;;;5071935;28;19928;-68
2022/10/16 02:45:06;;;;;;;;;;;12.80;99.90;;;;;;5073434;28;19931;-69
2022/10/16 02:47:31;;;;;;;;;;;12.80;99.90;;;;;;5073013;28;20399;-69
2022/10/16 02:49:57;;;;;;;;;;;12.80;99.90;;;;;;5054762;28;19924;-69
2022/10/16 02:52:22;;;;;;;;;;;12.80;99.90;;;;;;5055212;28;20389;-68
2022/10/16 02:54:48;;;;;;;;;;;12.80;99.90;;;;;;5072323;28;19986;-68
2022/10/16 02:57:14;;;;;;;;;;;12.80;99.90;;;;;;5079989;28;19950;-69
2022/10/16 02:59:39;;;;;;;;;;;12.80;99.90;;;;;;5078214;28;19980;-68
2022/10/16 03:02:05;;;;;;;;;;;12.80;99.90;;;;;;5072585;28;20014;-69
2022/10/16 03:04:30;;;;;;;;;;;12.80;99.90;;;;;;5055056;28;19935;-68
2022/10/16 03:06:56;;;;;;;;;;;12.80;99.90;;;;;;5071912;28;20015;-69
2022/10/16 03:09:21;;;;;;;;;;;12.90;99.90;;;;;;5073361;28;19935;-68
2022/10/16 03:11:47;;;;;;;;;;;12.80;99.90;;;;;;5072562;28;20015;-68
2022/10/16 03:14:13;;;;;;;;;;;12.80;99.90;;;;;;5071390;28;19955;-69
2022/10/16 03:16:38;;;;;;;;;;;12.80;99.90;;;;;;5072014;28;19936;-68
2022/10/16 03:19:04;;;;;;;;;;;12.90;99.90;;;;;;5070505;28;19936;-68
2022/10/16 03:21:29;;;;;;;;;;;12.90;99.90;;;;;;5073617;28;19970;-69
2022/10/16 03:23:55;;;;;;;;;;;12.90;99.90;;;;;;5074706;28;19925;-68
2022/10/16 03:26:20;;;;;;;;;;;12.90;99.90;;;;;;5072077;28;19928;-68
2022/10/16 03:28:46;;;;;;;;;;;12.90;99.90;;;;;;5070025;28;19925;-68
2022/10/16 03:31:12;;;;;;;;;;;12.90;99.90;;;;;;5071374;28;19973;-68
2022/10/16 03:33:37;;;;;;;;;;;12.90;99.90;;;;;;5072018;28;19928;-68
2022/10/16 03:36:03;;;;;;;;;;;12.90;99.90;;;;;;5066142;28;19936;-68
2022/10/16 03:38:28;;;;;;;;;;;12.90;99.90;;;;;;5071848;28;20465;-68
2022/10/16 03:40:54;;;;;;;;;;;12.90;99.90;;;;;;5070915;28;19932;-68
2022/10/16 03:43:19;;;;;;;;;;;12.90;99.90;;;;;;5072302;28;19931;-68
2022/10/16 03:45:45;;;;;;;;;;;12.90;99.90;;;;;;5054181;28;19931;-68
2022/10/16 03:48:10;;;;;;;;;;;12.90;99.90;;;;;;5076372;28;19928;-68
2022/10/16 03:50:36;;;;;;;;;;;12.90;99.90;;;;;;5070590;28;20029;-69
2022/10/16 03:53:02;;;;;;;;;;;12.90;99.90;;;;;;5087024;28;19929;-69
2022/10/16 03:55:27;;;;;;;;;;;12.90;99.90;;;;;;5071452;28;19928;-68
2022/10/16 03:57:53;;;;;;;;;;;12.80;99.90;;;;;;5071409;28;19975;-69
2022/10/16 04:00:19;;;;;;;;;;;12.80;99.90;;;;;;5079309;28;19950;-68
2022/10/16 04:02:44;;;;;;;;;;;12.80;99.90;;;;;;5077075;28;19931;-69
2022/10/16 04:05:10;;;;;;;;;;;12.80;99.90;;;;;;5070934;28;19932;-68
2022/10/16 04:07:36;;;;;;;;;;;12.80;99.90;;;;;;5103159;28;19943;-68
2022/10/16 04:10:01;;;;;;;;;;;12.80;99.90;;;;;;5070531;28;19978;-68
2022/10/16 04:12:27;;;;;;;;;;;12.80;99.90;;;;;;5072559;28;20294;-68
2022/10/16 04:14:52;;;;;;;;;;;12.70;99.90;;;;;;5053593;28;19924;-67
2022/10/16 04:17:18;;;;;;;;;;;12.70;99.90;;;;;;5070413;28;19935;-68
2022/10/16 04:19:44;;;;;;;;;;;12.70;99.90;;;;;;5071253;28;19964;-68
2022/10/16 04:22:09;;;;;;;;;;;12.60;99.90;;;;;;5077865;28;20026;-69
2022/10/16 04:24:35;;;;;;;;;;;12.60;99.90;;;;;;5086458;28;20039;-69
2022/10/16 04:27:00;;;;;;;;;;;12.60;99.90;;;;;;5087729;28;19932;-69
2022/10/16 04:29:26;;;;;;;;;;;12.60;99.90;;;;;;5069221;28;19924;-68
2022/10/16 04:31:52;;;;;;;;;;;12.50;99.90;;;;;;5083776;28;19974;-68
2022/10/16 04:34:17;;;;;;;;;;;12.50;99.90;;;;;;5072777;28;19932;-68
2022/10/16 04:36:43;;;;;;;;;;;12.50;99.90;;;;;;5096887;28;20375;-68
2022/10/16 04:39:08;;;;;;;;;;;12.50;99.90;;;;;;5067914;28;19928;-68
2022/10/16 04:41:34;;;;;;;;;;;12.50;99.90;;;;;;5070720;28;19928;-68
2022/10/16 04:43:59;;;;;;;;;;;12.50;99.90;;;;;;5068914;28;19928;-68
2022/10/16 04:46:25;;;;;;;;;;;12.50;99.90;;;;;;5069714;28;20033;-68
2022/10/16 04:48:51;;;;;;;;;;;12.50;99.90;;;;;;5073249;28;19928;-69
2022/10/16 04:51:16;;;;;;;;;;;12.50;99.90;;;;;;5071662;28;20012;-68
2022/10/16 04:53:42;;;;;;;;;;;12.50;99.90;;;;;;5097986;28;19924;-68
2022/10/16 04:56:07;;;;;;;;;;;12.50;99.90;;;;;;5068672;28;19931;-67
2022/10/16 04:58:33;;;;;;;;;;;12.60;99.90;;;;;;5069976;28;19933;-68
2022/10/16 05:00:58;;;;;;;;;;;12.60;99.90;;;;;;5070161;28;19990;-67
2022/10/16 05:03:24;;;;;;;;;;;12.60;99.90;;;;;;5098151;28;19924;-68
2022/10/16 05:05:50;;;;;;;;;;;12.60;99.90;;;;;;5070427;28;19924;-68
2022/10/16 05:08:16;;;;;;;;;;;12.60;99.90;;;;;;5070065;28;20307;-68
2022/10/16 05:10:42;;;;;;;;;;;12.60;99.90;;;;;;5070386;28;19962;-69
2022/10/16 05:13:08;;;;;;;;;;;12.70;99.90;;;;;;5069711;28;20022;-68
2022/10/16 05:15:33;;;;;;;;;;;12.70;99.90;;;;;;5071079;28;20015;-67
2022/10/16 05:17:59;;;;;;;;;;;12.70;99.90;;;;;;5052124;28;19924;-68
2022/10/16 05:20:25;;;;;;;;;;;12.70;99.90;;;;;;5068777;28;20403;-68
2022/10/16 05:22:50;;;;;;;;;;;12.70;99.90;;;;;;5070491;28;19925;-68
2022/10/16 05:25:16;;;;;;;;;;;12.70;99.90;;;;;;5069516;28;19928;-68
2022/10/16 05:27:42;;;;;;;;;;;12.70;99.90;;;;;;5084177;28;20439;-69
2022/10/16 05:30:07;;;;;;;;;;;12.70;99.90;;;;;;5069946;28;19931;-68
2022/10/16 05:32:33;;;;;;;;;;;12.70;99.90;;;;;;5070169;28;19964;-68
2022/10/16 05:34:59;;;;;;;;;;;12.70;99.90;;;;;;5070300;28;19925;-68
2022/10/16 05:37:26;;;;;;;;;;;12.70;99.90;;;;;;5068478;28;19998;-68
2022/10/16 05:39:52;;;;;;;;;;;12.70;99.90;;;;;;5070720;28;19925;-69
2022/10/16 05:42:18;;;;;;;;;;;12.70;99.90;;;;;;5077133;28;20347;-67
2022/10/16 05:44:43;;;;;;;;;;;12.70;99.90;;;;;;5073711;28;19928;-68
2022/10/16 05:47:10;;;;;;;;;;;12.70;99.90;;;;;;5073316;28;20054;-68
2022/10/16 05:49:36;;;;;;;;;;;12.70;99.90;;;;;;5073876;28;19982;-69
2022/10/16 05:52:01;;;;;;;;;;;12.70;99.90;;;;;;5077602;28;19932;-69
2022/10/16 05:54:27;;;;;;;;;;;12.70;99.90;;;;;;5073390;28;20340;-69
2022/10/16 05:56:52;;;;;;;;;;;12.70;99.90;;;;;;5073763;28;19925;-68
2022/10/16 05:59:18;;;;;;;;;;;12.70;99.90;;;;;;5073459;28;20031;-68
2022/10/16 06:01:43;;;;;;;;;;;12.80;99.90;;;;;;5072474;28;20015;-68
2022/10/16 06:04:09;;;;;;;;;;;12.70;99.90;;;;;;5073577;28;19924;-69
2022/10/16 06:06:36;;;;;;;;;;;12.70;99.90;;;;;;5079816;28;19928;-68
2022/10/16 06:09:02;;;;;;;;;;;12.70;99.90;;;;;;5073087;28;19932;-68
2022/10/16 06:11:28;;;;;;;;;;;12.70;99.90;;;;;;5071457;28;20039;-68
2022/10/16 06:13:56;;;;;;;;;;;12.70;99.90;;;;;;5069134;28;19935;-68
2022/10/16 06:16:22;;;;;;;;;;;12.60;99.90;;;;;;5070465;28;19932;-68
2022/10/16 06:18:50;;;;;;;;;;;12.60;99.90;;;;;;5073467;28;20417;-69
2022/10/16 06:21:20;;;;;;;;;;;12.60;99.90;;;;;;5071811;28;19970;-68
2022/10/16 06:23:46;;;;;;;;;;;12.60;99.90;;;;;;5073333;28;19931;-69
2022/10/16 06:26:12;;;;;;;;;;;12.60;99.90;;;;;;5072350;28;20348;-69
2022/10/16 06:28:38;;;;;;;;;;;12.70;99.90;;;;;;5075365;28;19932;-69
2022/10/16 06:31:05;;;;;;;;;;;12.70;99.90;;;;;;5072268;28;19924;-69
2022/10/16 06:33:31;;;;;;;;;;;12.70;99.90;;;;;;5072700;28;19925;-68
2022/10/16 06:36:03;;;;;;;;;;;12.70;99.90;;;;;;5072777;28;19935;-68
2022/10/16 06:38:28;;;;;;;;;;;12.80;99.90;;;;;;5070924;28;19929;-68
2022/10/16 06:40:54;;;;;;;;;;;12.80;99.90;;;;;;5074417;28;20294;-69
2022/10/16 06:43:19;;;;;;;;;;;12.80;99.90;;;;;;5071709;28;20382;-68
2022/10/16 06:45:52;;;;;;;;;;;12.80;99.90;;;;;;5073431;28;19929;-68
2022/10/16 06:48:17;;;;;;;;;;;12.80;99.90;;;;;;5106030;27;19935;-68
2022/10/16 06:50:43;;;;;;;;;;;12.80;99.90;;;;;;5105448;28;19925;-68
2022/10/16 06:53:09;;;;;;;;;;;12.90;99.90;;;;;;5073311;28;19928;-68
2022/10/16 06:55:34;;;;;;;;;;;12.90;99.90;;;;;;5072451;28;19982;-69
2022/10/16 06:58:00;;;;;;;;;;;12.90;99.90;;;;;;5072919;28;19971;-68
2022/10/16 07:00:25;;;;;;;;;;;12.90;99.90;;;;;;5072131;28;19981;-69
2022/10/16 07:02:51;;;;;;;;;;;13.00;99.90;;;;;;5072581;28;20326;-68
2022/10/16 07:05:16;;;;;;;;;;;13.00;99.90;;;;;;5102933;28;19924;-69
2022/10/16 07:07:42;;;;;;;;;;;13.00;99.90;;;;;;5073039;28;19979;-68
2022/10/16 07:10:08;;;;;;;;;;;13.00;99.90;;;;;;5072274;28;19924;-69
2022/10/16 07:12:33;;;;;;;;;;;13.10;99.90;;;;;;5070453;28;20006;-68
2022/10/16 07:14:59;;;;;;;;;;;13.10;99.90;;;;;;5055061;28;19932;-69
2022/10/16 07:17:24;;;;;;;;;;;13.10;99.90;;;;;;5072323;28;19928;-68
2022/10/16 07:19:52;;;;;;;;;;;13.10;99.90;;;;;;5081220;28;19932;-68
2022/10/16 07:22:18;;;;;;;;;;;13.10;99.90;;;;;;5071559;28;20395;-67
2022/10/16 07:24:44;;;;;;;;;;;13.20;99.90;;;;;;5054936;28;19924;-68
2022/10/16 07:27:10;;;;;;;;;;;13.20;99.90;;;;;;5069606;28;19925;-68
2022/10/16 07:29:35;;;;;;;;;;;13.20;99.90;;;;;;5072117;28;19934;-68
2022/10/16 07:32:01;;;;;;;;;;;13.20;99.90;;;;;;5073609;28;20010;-69
2022/10/16 07:34:27;;;;;;;;;;;13.30;99.90;;;;;;5070894;28;19971;-69
2022/10/16 07:36:52;;;;;;;;;;;13.30;99.90;;;;;;5071929;28;19928;-68
2022/10/16 07:39:18;;;;;;;;;;;13.30;99.90;;;;;;5071810;28;19932;-68
2022/10/16 07:41:44;;;;;;;;;;;13.30;99.90;;;;;;5071745;28;19931;-68
2022/10/16 07:44:09;;;;;;;;;;;13.30;99.90;;;;;;5071518;28;19928;-68
2022/10/16 07:46:35;;;;;;;;;;;13.40;99.90;;;;;;5070306;28;20560;-70
2022/10/16 07:49:02;;;;;;;;;;;13.40;99.90;;;;;;5104387;28;19932;-70
2022/10/16 07:51:27;;;;;;;;;;;13.30;99.90;;;;;;5072976;28;20279;-68
2022/10/16 07:53:53;;;;;;;;;;;13.40;99.90;;;;;;5071639;28;19924;-69
2022/10/16 07:56:19;;;;;;;;;;;13.30;99.90;;;;;;5071801;28;20329;-69
2022/10/16 07:58:45;;;;;;;;;;;13.40;99.90;;;;;;5069800;28;19979;-69
2022/10/16 08:01:12;;;;;;;;;;;13.30;99.90;;;;;;5071410;28;19983;-68
2022/10/16 08:03:41;;;;;;;;;;;13.30;99.90;;;;;;5070490;28;19935;-69
2022/10/16 08:06:06;;;;;;;;;;;13.30;99.90;;;;;;5071332;28;20439;-70
2022/10/16 08:08:32;;;;;;;;;;;13.40;99.90;;;;;;5084390;28;19924;-68
2022/10/16 08:10:57;;;;;;;;;;;13.40;99.90;;;;;;5071460;28;19924;-69
2022/10/16 08:13:23;;;;;;;;;;;13.60;99.90;;;;;;5071308;28;19994;-68
2022/10/16 08:15:49;;;;;;;;;;;14.00;99.90;;;;;;5070833;28;20379;-70
2022/10/16 08:18:15;;;;;;;;;;;14.40;99.90;;;;;;5071257;28;19938;-70
2022/10/16 08:20:41;;;;;;;;;;;15.30;99.90;;;;;;5081977;28;20318;-69
2022/10/16 08:23:07;;;;;;;;;;;16.30;99.90;;;;;;5071188;28;19964;-69
2022/10/16 08:25:37;;;;;;;;;;;16.90;99.90;;;;;;5070463;28;20511;-69
2022/10/16 08:28:04;;;;;;;;;;;17.50;99.90;;;;;;5071211;28;19931;-68
2022/10/16 08:30:29;;;;;;;;;;;18.00;99.90;;;;;;5070575;28;20023;-68
2022/10/16 08:32:55;;;;;;;;;;;18.00;99.90;;;;;;5071068;28;20014;-70
2022/10/16 08:35:20;;;;;;;;;;;18.10;99.90;;;;;;5071323;28;19928;-69
2022/10/16 08:37:46;;;;;;;;;;;18.60;99.90;;;;;;5070162;28;19976;-68
2022/10/16 08:40:30;;;;;;;;;;;19.10;99.90;;;;;;5053384;28;20023;-70
2022/10/16 08:42:57;;;;;;;;;;;19.40;99.90;;;;;;5070680;28;20032;-69
2022/10/16 08:45:22;;;;;;;;;;;19.30;99.90;;;;;;5081923;28;20010;-68
2022/10/16 08:48:07;;;;;;;;;;;18.90;99.90;;;;;;5071916;28;20087;-69
2022/10/16 08:50:35;;;;;;;;;;;18.50;99.90;;;;;;5069109;28;19997;-68
2022/10/16 08:53:03;;;;;;;;;;;18.10;99.90;;;;;;5070648;28;19980;-70
2022/10/16 08:55:38;;;;;;;;;;;17.80;99.90;;;;;;5059618;28;20391;-69
2022/10/16 08:58:10;;;;;;;;;;;17.50;99.90;;;;;;5081353;28;20673;-68
2022/10/16 09:00:36;;;;;;;;;;;17.30;99.90;;;;;;5068928;28;20014;-70
2022/10/16 09:03:34;;;;;;;;;;;17.00;99.90;;;;;;5052421;28;19932;-69
2022/10/16 09:06:09;;;;;;;;;;;16.80;99.90;;;;;;5046766;28;19924;-69
2022/10/16 09:08:38;;;;;;;;;;;16.70;99.90;;;;;;5068727;28;19967;-68
2022/10/16 09:11:09;;;;;;;;;;;16.50;99.90;;;;;;5070813;28;19925;-68
2022/10/16 09:14:04;;;;;;;;;;;16.40;99.90;;;;;;5068354;28;19971;-69
2022/10/16 09:16:33;;;;;;;;;;;16.30;99.90;;;;;;5065456;28;19929;-68
2022/10/16 09:18:58;;;;;;;;;;;;;;;;;;5070013;28;19964;-68
2022/10/16 09:21:29;;;;;;;;;;;16.20;99.90;;;;;;5070785;28;20509;-68
2022/10/16 09:23:58;;;;;;;;;;;16.10;99.90;;;;;;5066922;28;19936;-68
2022/10/16 09:26:23;;;;;;;;;;;16.10;99.90;;;;;;5065938;28;19929;-69
2022/10/16 09:28:51;;;;;;;;;;;16.00;99.90;;;;;;5070077;28;19992;-67
2022/10/16 09:31:21;;;;;;;;;;;16.00;99.90;;;;;;5043532;28;20406;-70
2022/10/16 09:33:50;;;;;;;;;;;16.10;99.90;;;;;;5065818;28;19924;-69
2022/10/16 09:36:16;;;;;;;;;;;16.20;99.90;;;;;;5069778;28;19931;-69
2022/10/16 09:38:42;;;;;;;;;;;16.30;99.90;;;;;;5076095;28;19928;-68
2022/10/16 09:41:21;;;;;;;;;;;16.40;99.90;;;;;;5071491;28;20416;-69
2022/10/16 09:43:53;;;;;;;;;;;16.50;99.90;;;;;;5069950;28;20045;-68
2022/10/16 09:46:21;;;;;;;;;;;16.60;99.90;;;;;;5076492;28;19924;-68
2022/10/16 09:48:48;;;;;;;;;;;16.60;99.90;;;;;;5072726;28;19930;-69
2022/10/16 09:51:24;;;;;;;;;;;16.60;99.90;;;;;;5080107;28;19971;-70
2022/10/16 09:53:54;;;;;;;;;;;16.60;99.90;;;;;;5070118;28;19924;-71
2022/10/16 09:56:30;;;;;;;;;;;16.60;99.90;;;;;;5069554;28;19928;-69
2022/10/16 09:58:57;;;;;;;;;;;16.60;99.90;;;;;;5069657;28;20384;-69
2022/10/16 10:01:26;;;;;;;;;;;16.60;99.90;;;;;;5082071;28;19924;-69
2022/10/16 10:04:00;;;;;;;;;;;16.60;99.90;;;;;;5068991;28;19951;-69
2022/10/16 10:06:27;;;;;;;;;;;16.60;99.90;;;;;;5069776;28;19985;-68
2022/10/16 10:08:54;;;;;;;;;;;16.60;99.90;;;;;;5065804;28;19925;-68
2022/10/16 10:11:36;;;;;;;;;;;16.60;99.90;;;;;;5074540;28;19928;-68
2022/10/16 10:14:06;;;;;;;;;;;16.60;99.90;;;;;;5073613;28;20015;-69
2022/10/16 10:16:31;;;;;;;;;;;16.50;99.90;;;;;;5061943;28;19994;-68
2022/10/16 10:18:57;;;;;;;;;;;16.60;99.90;;;;;;5067333;28;19974;-67
2022/10/16 10:21:23;;;;;;;;;;;16.60;99.90;;;;;;5053172;28;19925;-67
2022/10/16 10:23:56;;;;;;;;;;;16.50;99.90;;;;;;5069917;28;19933;-67
2022/10/16 10:26:24;;;;;;;;;;;16.50;99.90;;;;;;5068543;28;20279;-67
2022/10/16 10:28:56;;;;;;;;;;;16.50;99.90;;;;;;5099249;28;19951;-68
2022/10/16 10:31:38;;;;;;;;;;;16.60;99.90;;;;;;5073623;28;20015;-67
2022/10/16 10:34:22;;;;;;;;;;;16.60;99.90;;;;;;5074000;28;19924;-68
2022/10/16 10:36:53;;;;;;;;;;;16.60;99.90;;;;;;5076160;28;20455;-68
2022/10/16 10:39:24;;;;;;;;;;;16.70;99.90;;;;;;5085784;28;19929;-68
2022/10/16 10:41:56;;;;;;;;;;;16.70;99.90;;;;;;5085744;28;19928;-66
2022/10/16 10:44:21;;;;;;;;;;;16.80;99.90;;;;;;5089270;28;19936;-67
2022/10/16 10:46:50;;;;;;;;;;;16.70;99.90;;;;;;5091839;28;20023;-68
2022/10/16 10:49:36;;;;;;;;;;;16.70;99.90;;;;;;5069074;28;19939;-66
2022/10/16 10:52:02;;;;;;;;;;;16.80;99.90;;;;;;5083361;28;19938;-66
2022/10/16 10:54:28;;;;;;;;;;;16.90;99.90;;;;;;5077158;28;20015;-67
2022/10/16 10:56:59;;;;;;;;;;;17.00;99.90;;;;;;5083540;28;20023;-66
2022/10/16 10:59:36;;;;;;;;;;;17.10;99.90;;;;;;5089453;28;19923;-66
2022/10/16 11:02:06;;;;;;;;;;;17.20;99.90;;;;;;5071162;28;19936;-66
2022/10/16 11:04:39;;;;;;;;;;;17.20;99.90;;;;;;5074170;28;20290;-67
2022/10/16 11:07:09;;;;;;;;;;;17.20;99.90;;;;;;5070555;28;19994;-67
2022/10/16 11:09:36;;;;;;;;;;;17.20;99.90;;;;;;5074695;28;20290;-67
2022/10/16 11:12:14;;;;;;;;;;;17.10;99.90;;;;;;5064766;28;19936;-67
2022/10/16 11:14:48;;;;;;;;;;;17.00;99.90;;;;;;5080320;28;20397;-66
2022/10/16 11:17:16;;;;;;;;;;;16.90;99.90;;;;;;5068413;28;19929;-67
2022/10/16 11:19:48;;;;;;;;;;;16.70;99.90;;;;;;5067874;28;19963;-65
2022/10/16 11:22:16;;;;;;;;;;;16.70;99.90;;;;;;5075015;28;19932;-67
2022/10/16 11:24:44;;;;;;;;;;;16.80;99.90;;;;;;5073156;28;19925;-66
2022/10/16 11:27:14;;;;;;;;;;;16.90;99.90;;;;;;5074090;28;19920;-67
2022/10/16 11:29:59;;;;;;;;;;;17.00;99.90;;;;;;5071938;28;20180;-67
2022/10/16 11:32:40;;;;;;;;;;;17.30;99.90;;;;;;5068740;28;19925;-67
2022/10/16 11:35:14;;;;;;;;;;;17.40;99.90;;;;;;5055480;28;20276;-66
2022/10/16 11:37:46;;;;;;;;;;;17.50;99.90;;;;;;5072098;28;19978;-66
2022/10/16 11:40:26;;;;;;;;;;;17.60;99.90;;;;;;5071732;28;20411;-68
2022/10/16 11:42:55;;;;;;;;;;;17.60;99.90;;;;;;5070432;28;19932;-66
2022/10/16 11:45:37;;;;;;;;;;;17.60;99.90;;;;;;5072443;28;20323;-68
2022/10/16 11:48:03;;;;;;;;;;;17.70;99.90;;;;;;5071810;28;19951;-67
2022/10/16 11:50:31;;;;;;;;;;;17.70;99.90;;;;;;5071873;28;19928;-66
2022/10/16 11:53:02;;;;;;;;;;;17.70;99.90;;;;;;5071486;28;19924;-66
2022/10/16 11:55:34;;;;;;;;;;;17.80;99.90;;;;;;5080352;28;19928;-67
2022/10/16 11:58:08;;;;;;;;;;;17.90;99.90;;;;;;5088442;28;19933;-67
2022/10/16 12:00:46;;;;;;;;;;;17.90;99.90;;;;;;5081111;28;20409;-68
2022/10/16 12:03:11;;;;;;;;;;;17.80;99.90;;;;;;5066242;28;19972;-68
2022/10/16 12:05:58;;;;;;;;;;;17.60;99.90;;;;;;5059573;28;19983;-68
2022/10/16 12:08:24;;;;;;;;;;;17.50;99.90;;;;;;5072936;28;20069;-69
2022/10/16 12:10:50;;;;;;;;;;;17.50;99.90;;;;;;5072146;28;19935;-67
2022/10/16 12:13:31;;;;;;;;;;;17.40;99.90;;;;;;5070604;28;19928;-70
2022/10/16 12:16:12;;;;;;;;;;;17.60;99.90;;;;;;5070863;28;19933;-67
2022/10/16 12:18:38;;;;;;;;;;;17.60;99.90;;;;;;5080543;28;20338;-68
2022/10/16 12:21:05;;;;;;;;;;;17.60;99.90;;;;;;5103939;28;20304;-68
2022/10/16 12:23:32;;;;;;;;;;;17.60;99.90;;;;;;5070824;28;19928;-68
2022/10/16 12:25:59;;;;;;;;;;;17.60;99.90;;;;;;5070386;28;19928;-68
2022/10/16 12:28:31;;;;;;;;;;;17.60;99.90;;;;;;5076741;28;19924;-68
2022/10/16 12:30:58;;;;;;;;;;;17.60;99.90;;;;;;5071585;28;19940;-69
2022/10/16 12:33:25;;;;;;;;;;;17.60;99.90;;;;;;5071188;28;20298;-69
2022/10/16 12:35:52;;;;;;;;;;;17.60;99.90;;;;;;5070747;28;19932;-69
2022/10/16 12:38:33;;;;;;;;;;;17.60;99.90;;;;;;5070168;28;19975;-68
2022/10/16 12:41:00;;;;;;;;;;;17.50;99.90;;;;;;5072387;28;19929;-69
2022/10/16 12:43:31;;;;;;;;;;;17.50;99.90;;;;;;5080553;28;20379;-67
2022/10/16 12:46:23;;;;;;;;;;;17.50;99.90;;;;;;5069712;28;20035;-68
2022/10/16 12:48:50;;;;;;;;;;;17.40;99.90;;;;;;5069790;28;19951;-68
2022/10/16 12:51:21;;;;;;;;;;;17.30;99.90;;;;;;5070435;28;19931;-67
2022/10/16 12:53:57;;;;;;;;;;;17.30;99.90;;;;;;5070488;28;19928;-67
2022/10/16 12:56:26;;;;;;;;;;;17.20;99.90;;;;;;5070186;28;20003;-67
2022/10/16 12:58:57;;;;;;;;;;;17.10;99.90;;;;;;5069767;28;19931;-66
2022/10/16 13:01:36;;;;;;;;;;;17.00;99.90;;;;;;5082570;28;19971;-66
2022/10/16 13:04:02;;;;;;;;;;;16.90;99.90;;;;;;5069198;28;19928;-68
2022/10/16 13:06:30;;;;;;;;;;;16.90;99.90;;;;;;5069548;28;19951;-66
2022/10/16 13:08:59;;;;;;;;;;;16.90;99.90;;;;;;5071064;28;19924;-67
2022/10/16 13:11:33;;;;;;;;;;;16.90;99.90;;;;;;5071789;28;20355;-67
2022/10/16 13:14:02;;;;;;;;;;;16.90;99.90;;;;;;5070624;28;20406;-66
2022/10/16 13:16:33;;;;;;;;;;;17.00;99.90;;;;;;5079494;28;19931;-67
2022/10/16 13:19:18;;;;;;;;;;;17.00;99.90;;;;;;5069740;28;20373;-67
2022/10/16 13:21:54;;;;;;;;;;;17.00;99.90;;;;;;5062758;28;20314;-66
2022/10/16 13:24:29;;;;;;;;;;;17.00;99.90;;;;;;5070318;28;20390;-67
2022/10/16 13:27:13;;;;;;;;;;;17.00;99.90;;;;;;5070867;28;19972;-67
2022/10/16 13:29:41;;;;;;;;;;;17.00;99.90;;;;;;5071034;28;19925;-68
2022/10/16 13:32:09;;;;;;;;;;;16.90;99.90;;;;;;5078144;28;19970;-67
2022/10/16 13:34:42;;;;;;;;;;;16.90;99.90;;;;;;5070750;28;19925;-67
2022/10/16 13:37:16;;;;;;;;;;;16.90;99.90;;;;;;5070038;28;19982;-68
2022/10/16 13:39:41;;;;;;;;;;;16.80;99.90;;;;;;5103315;28;19932;-66
2022/10/16 13:42:12;;;;;;;;;;;16.80;99.90;;;;;;5076769;28;19935;-69
2022/10/16 13:44:43;;;;;;;;;;;16.80;99.90;;;;;;5053193;28;19928;-66
2022/10/16 13:47:16;;;;;;;;;;;16.70;99.90;;;;;;5069928;28;19977;-68
2022/10/16 13:49:42;;;;;;;;;;;16.70;99.90;;;;;;5065576;28;19935;-67
2022/10/16 13:52:16;;;;;;;;;;;16.80;99.90;;;;;;5071588;28;19947;-68
2022/10/16 13:54:41;;;;;;;;;;;16.80;99.90;;;;;;5094557;28;20394;-67
2022/10/16 13:57:07;;;;;;;;;;;16.90;99.90;;;;;;5052876;28;19950;-67
2022/10/16 13:59:34;;;;;;;;;;;16.90;99.90;;;;;;5070528;28;20401;-67
2022/10/16 14:02:00;;;;;;;;;;;17.00;99.90;;;;;;5073646;28;20340;-67
2022/10/16 14:04:29;;;;;;;;;;;17.00;99.90;;;;;;5076582;28;19932;-66
2022/10/16 14:06:54;;;;;;;;;;;16.90;99.90;;;;;;5073364;28;20016;-67
2022/10/16 14:09:27;;;;;;;;;;;16.90;99.90;;;;;;5073858;28;20011;-67
2022/10/16 14:11:56;;;;;;;;;;;16.90;99.90;;;;;;5074439;28;20280;-67
2022/10/16 14:14:22;;;;;;;;;;;16.90;99.90;;;;;;5080709;28;19928;-67
2022/10/16 14:16:47;;;;;;;;;;;16.90;99.90;;;;;;5084593;28;20022;-67
2022/10/16 14:19:17;;;;;;;;;;;16.90;99.90;;;;;;5088282;28;19928;-66
2022/10/16 14:21:43;;;;;;;;;;;16.90;99.90;;;;;;5082771;28;19924;-67
2022/10/16 14:24:12;;;;;;;;;;;16.90;99.90;;;;;;5067598;28;19979;-66
2022/10/16 14:26:42;;;;;;;;;;;16.90;99.90;;;;;;5072497;28;20058;-66